Time;durP1;ratioP1;P1;durP2;ratioP2;P2;SDS_P1;SDS_P2;PMS_P1;PMS_P2;Temp;Humidity;BMP_temperature;BMP_pressure;BME280_temperature;BME280_humidity;BME280_pressure;Samples;Min_cycle;Max_cycle;Signal;HPM_P1;HPM_P2
2021/04/28 00:01:20;;;;;;;;;;;;;;;-142.75;50.57;77716.09;5027045;28;19925;-74
2021/04/28 00:03:45;;;;;;;;;;;;;;;-142.75;50.96;77718.06;5031815;28;19925;-74
2021/04/28 00:06:11;;;;;;;;;;;;;;;-142.75;51.60;77723.97;5028914;28;19924;-73
2021/04/28 00:08:36;;;;;;;;;;;;;;;-142.75;52.27;77731.88;5027314;28;19917;-75
2021/04/28 00:11:01;;;;;;;;;;;;;;;-142.75;53.19;77747.63;5043484;28;21345;-75
2021/04/28 00:13:27;;;;;;;;;;;;;;;-142.75;53.53;77771.25;5029253;28;19932;-74
2021/04/28 00:15:52;;;;;;;;;;;;;;;-142.75;54.69;77783.06;5044091;28;19940;-74
2021/04/28 00:18:18;;;;;;;;;;;;;;;-142.75;55.45;77800.78;5030048;28;19959;-74
2021/04/28 00:20:44;;;;;;;;;;;;;;;-142.75;56.18;77816.53;5030363;28;19925;-74
2021/04/28 00:23:09;;;;;;;;;;;;;;;-142.75;56.28;77822.44;5040012;28;19925;-74
2021/04/28 00:25:35;;;;;;;;;;;;;;;-142.75;56.85;77826.38;5044031;28;19949;-74
2021/04/28 00:28:00;;;;;;;;;;;;;;;-142.75;57.63;77848.03;5010706;28;19925;-72
2021/04/28 00:30:26;;;;;;;;;;;;;;;-142.75;58.14;77865.75;5028282;28;19921;-72
2021/04/28 00:32:51;;;;;;;;;;;;;;;-142.75;57.66;77863.78;5046943;28;19923;-72
2021/04/28 00:35:18;;;;;;;;;;;;;;;-142.75;57.91;77861.81;5048004;28;19928;-73
2021/04/28 00:37:43;;;;;;;;;;;;;;;-142.75;57.80;77863.78;5029502;28;19917;-73
2021/04/28 00:40:10;;;;;;;;;;;;;;;-142.75;58.38;77877.56;5030826;28;20398;-72
2021/04/28 00:42:36;;;;;;;;;;;;;;;-142.75;58.33;77885.44;5038796;28;19995;-74
2021/04/28 00:45:02;;;;;;;;;;;;;;;-142.75;58.44;77879.53;5048057;28;19928;-75
2021/04/28 00:47:27;;;;;;;;;;;;;;;-142.75;59.25;77893.31;5047825;28;19970;-74
2021/04/28 00:49:52;;;;;;;;;;;;;;;-142.75;59.23;77891.34;5030212;28;19916;-74
2021/04/28 00:52:18;;;;;;;;;;;;;;;-142.75;58.79;77893.31;5047321;28;19924;-75
2021/04/28 00:54:44;;;;;;;;;;;;;;;-142.75;59.06;77895.28;5010660;28;20407;-74
2021/04/28 00:57:09;;;;;;;;;;;;;;;-142.75;58.60;77897.25;5045954;28;19917;-74
2021/04/28 00:59:34;;;;;;;;;;;;;;;-142.75;58.16;77897.25;5044528;28;20396;-74
2021/04/28 01:01:59;;;;;;;;;;;;;;;-142.75;57.43;77895.28;5047094;28;19940;-74
2021/04/28 01:04:25;;;;;;;;;;;;;;;-142.75;57.04;77881.50;5046481;28;19917;-75
2021/04/28 01:06:52;;;;;;;;;;;;;;;-142.75;56.14;77869.69;5033181;28;19924;-74
2021/04/28 01:09:17;;;;;;;;;;;;;;;-142.75;57.36;77859.84;5010334;28;19921;-74
2021/04/28 01:11:43;;;;;;;;;;;;;;;-142.75;57.00;77865.75;5037736;28;19921;-73
2021/04/28 01:14:08;;;;;;;;;;;;;;;-142.75;55.53;77855.91;5028632;28;19917;-73
2021/04/28 01:16:33;;;;;;;;;;;;;;;-142.75;55.31;77846.06;5045190;28;21557;-74
2021/04/28 01:19:00;;;;;;;;;;;;;;;-142.75;54.84;77830.31;5014874;28;19952;-75
2021/04/28 01:21:25;;;;;;;;;;;;;;;-142.75;54.76;77826.38;5028239;28;19967;-75
2021/04/28 01:23:50;;;;;;;;;;;;;;;-142.75;54.38;77814.56;5047596;28;19979;-74
2021/04/28 01:26:18;;;;;;;;;;;;;;;-142.75;54.35;77814.56;5040743;28;20059;-74
2021/04/28 01:28:44;;;;;;;;;;;;;;;-142.75;54.60;77802.75;5040898;28;19917;-73
2021/04/28 01:31:11;;;;;;;;;;;;;;;-142.75;54.10;77804.72;5044287;28;20275;-73
2021/04/28 01:33:41;;;;;;;;;;;;;;;-142.75;54.07;77800.78;5043053;28;19937;-75
2021/04/28 01:36:08;;;;;;;;;;;;;;;-142.75;53.73;77800.78;5029678;28;19923;-76
2021/04/28 01:38:40;;;;;;;;;;;;;;;-142.75;54.32;77794.88;5045935;28;19917;-72
2021/04/28 01:41:06;;;;;;;;;;;;;;;-142.75;55.26;77810.63;5026003;28;19921;-73
2021/04/28 01:43:31;;;;;;;;;;;;;;;-142.75;56.46;77830.31;5026713;28;19924;-75
2021/04/28 01:45:57;;;;;;;;;;;;;;;-142.75;56.27;77850.00;5046223;28;19963;-74
2021/04/28 01:48:22;;;;;;;;;;;;;;;-142.75;55.91;77855.91;5047381;28;19967;-75
2021/04/28 01:50:49;;;;;;;;;;;;;;;-142.75;55.17;77853.94;5025888;28;19932;-73
2021/04/28 01:53:15;;;;;;;;;;;;;;;-142.75;56.26;77848.03;5027288;28;19925;-75
2021/04/28 01:55:40;;;;;;;;;;;;;;;-142.75;55.54;77857.88;5046053;28;19971;-72
2021/04/28 01:58:06;;;;;;;;;;;;;;;-142.75;55.39;77842.13;5037710;28;19917;-74
2021/04/28 02:00:31;;;;;;;;;;;;;;;-142.75;55.36;77842.13;5027202;28;19991;-72
2021/04/28 02:02:57;;;;;;;;;;;;;;;-142.75;55.60;77842.13;5036118;28;20115;-71
2021/04/28 02:05:22;;;;;;;;;;;;;;;-142.75;55.60;77857.88;5031901;28;19924;-72
2021/04/28 02:07:48;;;;;;;;;;;;;;;-142.75;55.57;77859.84;5031351;28;19966;-72
2021/04/28 02:10:14;;;;;;;;;;;;;;;-142.75;55.60;77853.94;5045065;28;19917;-73
2021/04/28 02:12:40;;;;;;;;;;;;;;;-142.75;54.55;77840.16;5017621;28;19917;-74
2021/04/28 02:15:06;;;;;;;;;;;;;;;-142.75;56.25;77846.06;5032765;28;19960;-75
2021/04/28 02:17:32;;;;;;;;;;;;;;;-142.75;56.04;77857.88;5045431;28;19917;-74
2021/04/28 02:19:57;;;;;;;;;;;;;;;-142.75;57.58;77865.75;5041181;28;19928;-75
2021/04/28 02:22:25;;;;;;;;;;;;;;;-142.75;57.82;77885.44;5032580;28;20046;-74
2021/04/28 02:24:50;;;;;;;;;;;;;;;-142.75;57.96;77891.34;5019191;28;19917;-74
2021/04/28 02:27:15;;;;;;;;;;;;;;;-142.75;59.20;77901.19;5050264;28;19924;-75
2021/04/28 02:29:40;;;;;;;;;;;;;;;-142.75;58.80;77913.03;5044108;28;19917;-74
2021/04/28 02:32:06;;;;;;;;;;;;;;;-142.75;59.11;77918.94;5044015;28;19920;-74
2021/04/28 02:34:31;;;;;;;;;;;;;;;-142.75;59.05;77922.88;5045269;28;19923;-74
2021/04/28 02:36:58;;;;;;;;;;;;;;;-142.75;59.22;77915.00;5043439;28;19924;-74
2021/04/28 02:39:29;;;;;;;;;;;;;;;-142.75;59.22;77920.91;5031999;28;19917;-74
2021/04/28 02:41:55;;;;;;;;;;;;;;;-142.75;58.94;77920.91;5038372;28;19940;-75
2021/04/28 02:44:23;;;;;;;;;;;;;;;-142.75;58.77;77913.03;5016011;28;20379;-73
2021/04/28 02:46:49;;;;;;;;;;;;;;;-142.75;58.38;77913.03;5030660;28;19921;-74
2021/04/28 02:49:15;;;;;;;;;;;;;;;-142.75;58.05;77907.09;5050288;28;20014;-74
2021/04/28 02:51:40;;;;;;;;;;;;;;;-142.75;57.73;77903.16;5049711;28;20007;-74
2021/04/28 02:54:06;;;;;;;;;;;;;;;-142.75;58.73;77905.13;5033354;28;20029;-74
2021/04/28 02:56:32;;;;;;;;;;;;;;;-142.75;59.66;77918.94;5049959;28;20314;-75
2021/04/28 02:58:57;;;;;;;;;;;;;;;-142.75;59.10;77920.91;5049104;28;19921;-72
2021/04/28 03:01:23;;;;;;;;;;;;;;;-142.75;58.77;77905.13;5031595;28;19956;-72
2021/04/28 03:03:49;;;;;;;;;;;;;;;-142.75;58.89;77916.97;5045477;28;19917;-72
2021/04/28 03:06:16;;;;;;;;;;;;;;;-142.75;58.64;77924.84;5031970;28;19916;-73
2021/04/28 03:08:43;;;;;;;;;;;;;;;-142.75;58.39;77909.06;5049673;28;19921;-74
2021/04/28 03:11:09;;;;;;;;;;;;;;;-142.75;58.48;77913.03;5040259;28;19967;-74
2021/04/28 03:13:34;;;;;;;;;;;;;;;-142.75;59.08;77926.81;5041795;28;19917;-73
2021/04/28 03:15:59;;;;;;;;;;;;;;;-142.75;59.13;77948.47;5028053;28;19921;-74
2021/04/28 03:18:26;;;;;;;;;;;;;;;-142.75;59.39;77950.44;5029825;28;19917;-74
2021/04/28 03:20:53;;;;;;;;;;;;;;;-142.75;59.55;77952.41;5028294;28;20418;-75
2021/04/28 03:23:18;;;;;;;;;;;;;;;-142.75;59.87;77956.34;5046538;28;19921;-74
2021/04/28 03:25:43;;;;;;;;;;;;;;;-142.75;60.25;77964.22;5028315;28;19917;-75
2021/04/28 03:28:09;;;;;;;;;;;;;;;-142.75;60.56;77966.19;5030165;28;20004;-74
2021/04/28 03:30:34;;;;;;;;;;;;;;;-142.75;60.88;77972.09;5027921;28;20063;-74
2021/04/28 03:33:00;;;;;;;;;;;;;;;-142.75;61.08;77981.94;5044816;28;20627;-74
2021/04/28 03:35:25;;;;;;;;;;;;;;;-142.75;61.00;77991.78;5029610;28;20046;-74
2021/04/28 03:37:51;;;;;;;;;;;;;;;-142.75;60.89;77993.75;5031092;28;19932;-74
2021/04/28 03:40:16;;;;;;;;;;;;;;;-142.75;61.30;77999.66;5032549;28;20011;-74
2021/04/28 03:42:41;;;;;;;;;;;;;;;-142.75;61.56;78001.63;5043652;28;20010;-74
2021/04/28 03:45:07;;;;;;;;;;;;;;;-142.75;61.46;78003.59;5031460;28;20029;-74
2021/04/28 03:47:32;;;;;;;;;;;;;;;-142.75;61.68;78007.53;5049002;28;19925;-74
2021/04/28 03:49:57;;;;;;;;;;;;;;;-142.75;61.34;78011.47;5044930;28;19932;-75
2021/04/28 03:52:23;;;;;;;;;;;;;;;-142.75;61.27;77999.66;5030691;28;19975;-74
2021/04/28 03:54:48;;;;;;;;;;;;;;;-142.75;61.22;77989.81;5031073;28;19925;-75
2021/04/28 03:57:13;;;;;;;;;;;;;;;-142.75;60.70;77987.84;5027724;28;19978;-74
2021/04/28 03:59:38;;;;;;;;;;;;;;;-142.75;60.59;77978.00;5030952;28;20322;-74
2021/04/28 04:02:03;;;;;;;;;;;;;;;-142.75;58.93;77964.22;5027378;28;19932;-73
2021/04/28 04:04:29;;;;;;;;;;;;;;;-142.75;58.91;77960.28;5044691;28;19951;-74
2021/04/28 04:06:54;;;;;;;;;;;;;;;-142.75;58.57;77960.28;5047419;28;19932;-74
2021/04/28 04:09:19;;;;;;;;;;;;;;;-142.75;58.29;77948.47;5038941;28;19924;-74
2021/04/28 04:11:44;;;;;;;;;;;;;;;-142.75;57.94;77952.41;5027277;28;19968;-74
2021/04/28 04:14:09;;;;;;;;;;;;;;;-142.75;57.95;77944.53;5044360;28;19933;-74
2021/04/28 04:16:35;;;;;;;;;;;;;;;-142.75;57.84;77932.72;5029342;28;19925;-74
2021/04/28 04:19:00;;;;;;;;;;;;;;;-142.75;57.56;77936.66;5028654;28;20395;-74
2021/04/28 04:21:25;;;;;;;;;;;;;;;-142.75;57.83;77938.63;5043954;28;19925;-74
2021/04/28 04:23:50;;;;;;;;;;;;;;;-142.75;57.80;77932.72;5030566;28;20643;-74
2021/04/28 04:26:16;;;;;;;;;;;;;;;-142.75;58.03;77932.72;5027061;28;20442;-74
2021/04/28 04:28:41;;;;;;;;;;;;;;;-142.75;57.75;77916.97;5028063;28;19947;-75
2021/04/28 04:31:06;;;;;;;;;;;;;;;-142.75;57.82;77924.84;5046537;28;19929;-74
2021/04/28 04:33:32;;;;;;;;;;;;;;;-142.75;58.44;77924.84;5046817;28;19986;-73
2021/04/28 04:35:57;;;;;;;;;;;;;;;-142.75;59.07;77930.75;5048316;28;19925;-74
2021/04/28 04:38:22;;;;;;;;;;;;;;;-142.75;59.10;77926.81;5047943;28;20039;-74
2021/04/28 04:40:47;;;;;;;;;;;;;;;-142.75;58.73;77920.91;5031076;28;20481;-73
2021/04/28 04:43:12;;;;;;;;;;;;;;;-142.75;58.47;77920.91;5029353;28;20055;-74
2021/04/28 04:45:38;;;;;;;;;;;;;;;-142.75;57.98;77915.00;5028773;28;20043;-74
2021/04/28 04:48:04;;;;;;;;;;;;;;;-142.75;57.70;77911.06;5043503;28;19931;-75
2021/04/28 04:50:29;;;;;;;;;;;;;;;-142.75;57.60;77903.16;5045004;28;19928;-72
2021/04/28 04:52:55;;;;;;;;;;;;;;;-142.75;57.36;77903.16;5030368;28;19917;-75
2021/04/28 04:55:21;;;;;;;;;;;;;;;-142.75;56.84;77881.50;5028917;28;19925;-75
2021/04/28 04:57:47;;;;;;;;;;;;;;;-142.75;56.84;77865.75;5042593;28;19917;-72
2021/04/28 05:00:13;;;;;;;;;;;;;;;-142.75;56.67;77848.03;5043839;28;19940;-73
2021/04/28 05:02:38;;;;;;;;;;;;;;;-142.75;56.63;77834.25;5028011;28;20410;-74
2021/04/28 05:05:03;;;;;;;;;;;;;;;-142.75;56.57;77816.53;5045387;28;19924;-74
2021/04/28 05:07:28;;;;;;;;;;;;;;;-142.75;55.96;77794.88;5031450;28;19924;-73
2021/04/28 05:09:54;;;;;;;;;;;;;;;-142.75;55.69;77761.41;5027863;28;19924;-72
2021/04/28 05:12:19;;;;;;;;;;;;;;;-142.75;55.20;77739.75;5046427;28;19944;-73
2021/04/28 05:14:45;;;;;;;;;;;;;;;-142.75;54.41;77716.09;5018744;28;19921;-73
2021/04/28 05:17:10;;;;;;;;;;;;;;;-142.75;54.44;77688.53;5047879;28;20016;-74
2021/04/28 05:19:35;;;;;;;;;;;;;;;-142.75;54.22;77660.97;5048309;28;19940;-74
2021/04/28 05:22:00;;;;;;;;;;;;;;;-142.75;53.66;77623.56;5030587;28;19939;-74
2021/04/28 05:24:25;;;;;;;;;;;;;;;-142.75;52.12;77588.13;5033120;28;19917;-74
2021/04/28 05:26:51;;;;;;;;;;;;;;;-142.75;52.21;77542.84;5014166;28;19917;-74
2021/04/28 05:29:16;;;;;;;;;;;;;;;-142.75;51.26;77471.97;5037977;28;19928;-78
2021/04/28 05:31:41;;;;;;;;;;;;;;;-142.75;50.42;77393.19;5040661;28;19921;-73
2021/04/28 05:34:06;;;;;;;;;;;;;;;-142.75;49.02;77322.31;5046463;28;19978;-75
2021/04/28 05:36:31;;;;;;;;;;;;;;;-142.75;47.21;77239.63;5040627;28;19996;-72
2021/04/28 05:38:59;;;;;;;;;;;;;;;-142.75;46.46;77156.94;5029831;28;19925;-73
2021/04/28 05:41:24;;;;;;;;;;;;;;;-142.75;44.96;77062.44;5051186;28;19924;-74
2021/04/28 05:43:49;;;;;;;;;;;;;;;-142.75;43.28;76987.63;5045622;28;19917;-73
2021/04/28 05:46:15;;;;;;;;;;;;;;;-142.75;42.43;76899.03;5033856;28;19917;-73
2021/04/28 05:48:40;;;;;;;;;;;;;;;-142.75;41.88;76834.06;5050032;28;20453;-74
2021/04/28 05:51:05;;;;;;;;;;;;;;;-142.75;40.58;76806.50;5028903;28;19921;-73
2021/04/28 05:53:31;;;;;;;;;;;;;;;-142.75;39.80;76739.59;5046310;28;19925;-72
2021/04/28 05:56:00;;;;;;;;;;;;;;;-142.75;38.55;76741.56;5031761;28;19918;-72
2021/04/28 05:58:25;;;;;;;;;;;;;;;-142.75;38.85;76794.69;5050851;28;19921;-73
2021/04/28 06:00:50;;;;;;;;;;;;;;;-142.75;39.95;76788.81;5043259;28;19932;-73
2021/04/28 06:03:16;;;;;;;;;;;;;;;-142.75;39.10;76733.69;5030357;28;21541;-74
2021/04/28 06:05:41;;;;;;;;;;;;;;;-142.75;39.54;76786.84;5048814;28;19917;-72
2021/04/28 06:08:06;;;;;;;;;;;;;;;-142.75;39.88;76808.50;5029059;28;19917;-74
2021/04/28 06:10:31;;;;;;;;;;;;;;;-142.75;40.38;76847.84;5045230;28;20015;-75
2021/04/28 06:12:56;;;;;;;;;;;;;;;-142.75;41.16;76893.13;5032241;28;20055;-74
2021/04/28 06:15:22;;;;;;;;;;;;;;;-142.75;40.92;76924.63;5038324;28;19959;-73
2021/04/28 06:17:47;;;;;;;;;;;;;;;-142.75;41.24;76936.44;5029981;28;19929;-75
2021/04/28 06:20:13;;;;;;;;;;;;;;;-142.75;41.81;76926.59;5045825;28;20497;-74
2021/04/28 06:22:39;;;;;;;;;;;;;;;-142.75;41.15;76834.06;5037723;28;19924;-74
2021/04/28 06:25:05;;;;;;;;;;;;;;;-142.75;39.80;76712.03;5038231;28;20019;-74
2021/04/28 06:27:30;;;;;;;;;;;;;;;-142.75;39.48;76552.56;5039330;28;20015;-76
2021/04/28 06:29:55;;;;;;;;;;;;;;;-142.75;37.27;76515.19;5038880;28;19971;-73
2021/04/28 06:32:20;;;;;;;;;;;;;;;-142.75;35.65;76418.72;5039796;28;19928;-74
2021/04/28 06:34:46;;;;;;;;;;;;;;;-142.75;35.57;76257.31;5049598;28;20009;-73
2021/04/28 06:37:11;;;;;;;;;;;;;;;-142.75;33.82;76204.16;5019110;28;20272;-75
2021/04/28 06:39:37;;;;;;;;;;;;;;;-142.75;33.59;76243.53;5030002;28;19917;-72
2021/04/28 06:42:02;;;;;;;;;;;;;;;-142.75;32.82;76280.94;5034272;28;19916;-72
2021/04/28 06:44:27;;;;;;;;;;;;;;;-142.75;34.78;76395.09;5046617;28;19943;-72
2021/04/28 06:46:52;;;;;;;;;;;;;;;-142.75;35.73;76460.06;5033776;28;19917;-72
2021/04/28 06:49:18;;;;;;;;;;;;;;;-142.75;35.81;76505.34;5042417;28;19925;-71
2021/04/28 06:51:43;;;;;;;;;;;;;;;-142.75;36.70;76499.44;5039570;28;19927;-72
2021/04/28 06:54:08;;;;;;;;;;;;;;;-142.75;35.77;76418.72;5033739;28;19917;-72
2021/04/28 06:56:33;;;;;;;;;;;;;;;-142.75;35.01;76406.91;5030890;28;19927;-73
2021/04/28 06:58:59;;;;;;;;;;;;;;;-142.75;35.10;76371.47;5035580;28;19954;-72
2021/04/28 07:01:24;;;;;;;;;;;;;;;-142.75;34.62;76275.03;5045475;28;20389;-72
2021/04/28 07:03:49;;;;;;;;;;;;;;;-142.75;33.51;76182.53;5050216;28;19928;-72
2021/04/28 07:06:14;;;;;;;;;;;;;;;-142.75;33.56;76129.38;5027186;28;19917;-73
2021/04/28 07:08:40;;;;;;;;;;;;;;;-142.75;32.53;76027.03;5041028;28;20386;-76
2021/04/28 07:11:06;;;;;;;;;;;;;;;-142.75;32.68;75975.84;5028250;28;19927;-74
2021/04/28 07:13:31;;;;;;;;;;;;;;;-142.75;31.43;75940.44;5049220;28;19923;-73
2021/04/28 07:15:56;;;;;;;;;;;;;;;-142.75;30.56;75914.84;5034883;28;19975;-73
2021/04/28 07:18:22;;;;;;;;;;;;;;;-142.75;30.13;75851.88;5031180;28;19921;-74
2021/04/28 07:20:47;;;;;;;;;;;;;;;-142.75;30.75;75802.66;5012458;28;19921;-72
2021/04/28 07:23:12;;;;;;;;;;;;;;;-142.75;30.16;75735.75;5041027;28;19924;-73
2021/04/28 07:25:37;;;;;;;;;;;;;;;-142.75;29.49;75668.84;5044227;28;19967;-75
2021/04/28 07:28:02;;;;;;;;;;;;;;;-142.75;29.54;75670.81;5029422;28;19918;-71
2021/04/28 07:30:28;;;;;;;;;;;;;;;-142.75;29.68;75668.84;5028196;28;19964;-73
2021/04/28 07:32:53;;;;;;;;;;;;;;;-142.75;28.09;75688.50;5034509;28;19964;-72
2021/04/28 07:35:21;;;;;;;;;;;;;;;-142.75;29.28;75651.13;5034554;28;19956;-72
2021/04/28 07:37:46;;;;;;;;;;;;;;;-142.75;28.63;75613.72;5034331;28;19923;-73
2021/04/28 07:40:12;;;;;;;;;;;;;;;-142.75;28.53;75590.13;5051318;28;19960;-73
2021/04/28 07:42:37;;;;;;;;;;;;;;;-142.75;28.95;75556.66;5050445;28;19952;-72
2021/04/28 07:45:03;;;;;;;;;;;;;;;-142.75;28.15;75554.69;5047626;28;19917;-72
2021/04/28 07:47:29;;;;;;;;;;;;;;;-142.75;28.35;75487.78;5044254;28;20008;-74
2021/04/28 07:49:54;;;;;;;;;;;;;;;-142.75;28.04;75472.03;5038515;28;20010;-75
2021/04/28 07:52:19;;;;;;;;;;;;;;;-142.75;27.75;75416.94;5030702;28;19928;-75
2021/04/28 07:54:44;;;;;;;;;;;;;;;-142.75;27.86;75385.44;5030738;28;19978;-73
2021/04/28 07:57:09;;;;;;;;;;;;;;;-142.75;27.63;75456.28;5029639;28;20429;-73
2021/04/28 07:59:35;;;;;;;;;;;;;;;-142.75;27.17;75448.41;5028577;28;19964;-74
2021/04/28 08:02:00;;;;;;;;;;;;;;;-142.75;28.23;75432.69;5029201;28;19917;-75
2021/04/28 08:04:26;;;;;;;;;;;;;;;-142.75;28.45;75475.97;5031441;28;20004;-74
2021/04/28 08:06:51;;;;;;;;;;;;;;;-142.75;28.11;75460.22;5032276;28;19955;-72
2021/04/28 08:09:16;;;;;;;;;;;;;;;-142.75;28.14;75383.47;5030003;28;19917;-75
2021/04/28 08:11:41;;;;;;;;;;;;;;;-142.75;26.72;75322.47;5029728;28;19925;-73
2021/04/28 08:14:07;;;;;;;;;;;;;;;-142.75;27.26;75279.19;5041864;28;19917;-73
2021/04/28 08:16:32;;;;;;;;;;;;;;;-142.75;27.45;75253.59;5038331;28;20036;-73
2021/04/28 08:18:58;;;;;;;;;;;;;;;-142.75;27.23;75269.34;5045413;28;19966;-74
2021/04/28 08:21:23;;;;;;;;;;;;;;;-142.75;27.00;75287.06;5037854;28;19959;-73
2021/04/28 08:23:48;;;;;;;;;;;;;;;-142.75;27.68;75352.00;5040662;28;19917;-74
2021/04/28 08:26:14;;;;;;;;;;;;;;;-142.75;27.98;75483.84;5043820;28;19993;-72
2021/04/28 08:28:41;;;;;;;;;;;;;;;-142.75;29.10;75647.19;5039628;28;19984;-74
2021/04/28 08:31:10;;;;;;;;;;;;;;;-142.75;31.02;75802.66;5039011;28;22069;-72
2021/04/28 08:33:36;;;;;;;;;;;;;;;-142.75;31.63;75804.63;5034177;28;20437;-72
2021/04/28 08:36:02;;;;;;;;;;;;;;;-142.75;31.85;75684.56;5047749;28;20003;-73
2021/04/28 08:38:27;;;;;;;;;;;;;;;-142.75;29.97;75704.25;5049315;28;20406;-74
2021/04/28 08:40:52;;;;;;;;;;;;;;;-142.75;30.66;75739.69;5048190;28;19924;-72
2021/04/28 08:43:21;;;;;;;;;;;;;;;-142.75;30.78;75751.50;5050506;28;19921;-72
2021/04/28 08:45:46;;;;;;;;;;;;;;;-142.75;30.72;75725.91;5051506;28;19924;-74
2021/04/28 08:48:11;;;;;;;;;;;;;;;-142.75;31.57;75794.78;5038911;28;19917;-72
2021/04/28 08:50:36;;;;;;;;;;;;;;;-142.75;31.72;75857.78;5030285;28;19971;-72
2021/04/28 08:53:02;;;;;;;;;;;;;;;-142.75;32.75;75834.16;5030560;28;19936;-73
2021/04/28 08:55:28;;;;;;;;;;;;;;;-142.75;32.24;75686.53;5029762;28;19925;-74
2021/04/28 08:57:53;;;;;;;;;;;;;;;-142.75;30.29;75592.09;5029327;28;19932;-74
2021/04/28 09:00:18;;;;;;;;;;;;;;;-142.75;30.26;75584.22;5018296;28;20012;-72
2021/04/28 09:02:53;;;;;;;;;;;;;;;-142.75;30.23;75619.63;5039144;28;19998;-72
2021/04/28 09:05:18;;;;;;;;;;;;;;;-142.75;31.30;75692.44;5031982;28;20004;-73
2021/04/28 09:07:44;;;;;;;;;;;;;;;-142.75;31.17;75721.97;5038756;28;19967;-73
2021/04/28 09:10:14;;;;;;;;;;;;;;;-142.75;31.49;75773.13;5046906;28;19975;-74
2021/04/28 09:12:40;;;;;;;;;;;;;;;-142.75;32.30;75779.03;5047494;28;19943;-73
2021/04/28 09:15:06;;;;;;;;;;;;;;;-142.75;31.38;75755.44;5048463;28;19964;-73
2021/04/28 09:17:50;;;;;;;;;;;;;;;-142.75;31.46;75759.38;5044494;28;20298;-74
2021/04/28 09:20:18;;;;;;;;;;;;;;;-142.75;31.50;75712.13;5048596;28;19917;-73
2021/04/28 09:22:50;;;;;;;;;;;;;;;-142.75;31.60;75696.38;5047946;28;19992;-74
2021/04/28 09:25:32;;;;;;;;;;;;;;;-142.75;31.32;75700.31;5030293;28;19925;-75
2021/04/28 09:27:57;;;;;;;;;;;;;;;-142.75;31.71;75721.97;5047829;28;19974;-72
2021/04/28 09:30:24;;;;;;;;;;;;;;;-142.75;32.17;75735.75;5032652;28;19963;-73
2021/04/28 09:32:51;;;;;;;;;;;;;;;-142.75;32.26;75765.25;5041911;28;19917;-73
2021/04/28 09:35:18;;;;;;;;;;;;;;;-142.75;32.01;75779.03;5010691;28;20298;-72
2021/04/28 09:37:53;;;;;;;;;;;;;;;-142.75;32.41;75723.94;5038393;28;19921;-74
2021/04/28 09:40:19;;;;;;;;;;;;;;;-142.75;31.39;75668.84;5047873;28;19913;-75
2021/04/28 09:42:56;;;;;;;;;;;;;;;-142.75;31.08;75664.91;5046553;28;20255;-72
2021/04/28 09:45:41;;;;;;;;;;;;;;;-142.75;31.37;75763.28;5047514;28;19912;-74
2021/04/28 09:48:08;;;;;;;;;;;;;;;-142.75;32.03;75664.91;5028136;28;19916;-73
2021/04/28 09:50:34;;;;;;;;;;;;;;;-142.75;30.46;75566.50;5046014;28;20053;-73
2021/04/28 09:52:59;;;;;;;;;;;;;;;-142.75;30.05;75413.00;5044468;28;20020;-72
2021/04/28 09:55:25;;;;;;;;;;;;;;;-142.75;28.82;75365.75;5026225;28;19924;-72
2021/04/28 09:57:52;;;;;;;;;;;;;;;-142.75;28.79;75454.31;5036326;28;19924;-75
2021/04/28 10:00:24;;;;;;;;;;;;;;;-142.75;27.64;75359.88;5041473;28;20030;-74
2021/04/28 10:02:57;;;;;;;;;;;;;;;-142.75;28.14;75401.19;5025167;28;19917;-74
2021/04/28 10:05:25;;;;;;;;;;;;;;;-142.75;27.00;75586.19;5042018;28;19955;-74
2021/04/28 10:07:51;;;;;;;;;;;;;;;-142.75;28.67;75483.84;5037178;28;19917;-73
2021/04/28 10:10:18;;;;;;;;;;;;;;;-142.75;29.23;75499.59;5067037;22;20494;-73
2021/04/28 10:12:43;;;;;;;;;;;;;;;-142.75;28.27;75515.31;5055436;28;19933;-73
2021/04/28 10:15:08;;;;;;;;;;;;;;;-142.75;26.94;75361.84;5067528;28;20370;-73
2021/04/28 10:17:37;;;;;;;;;;;;;;;-142.75;27.10;75249.66;5068990;28;19912;-75
2021/04/28 10:20:06;;;;;;;;;;;;;;;-142.75;27.50;75178.81;5067916;28;19924;-75
2021/04/28 10:22:32;;;;;;;;;;;;;;;-142.75;26.20;75155.22;5055061;28;19913;-72
2021/04/28 10:24:59;;;;;;;;;;;;;;;-142.75;26.04;75090.28;5048436;28;20370;-72
2021/04/28 10:27:26;;;;;;;;;;;;;;;-142.75;25.45;75007.63;5049855;28;19919;-75
2021/04/28 10:29:52;;;;;;;;;;;;;;;-142.75;24.15;74987.94;5059836;28;19913;-72
2021/04/28 10:32:18;;;;;;;;;;;;;;;-142.75;25.45;75145.38;5051614;28;20385;-72
2021/04/28 10:34:47;;;;;;;;;;;;;;;-142.75;26.16;75168.97;5051794;28;19947;-73
2021/04/28 10:37:12;;;;;;;;;;;;;;;-142.75;26.21;75092.25;5050362;28;19913;-73
2021/04/28 10:39:38;;;;;;;;;;;;;;;-142.75;26.58;75153.25;5051375;28;20419;-73
2021/04/28 10:42:05;;;;;;;;;;;;;;;-142.75;25.97;75084.38;5053215;28;20281;-74
2021/04/28 10:44:33;;;;;;;;;;;;;;;-142.75;25.54;75133.56;5068046;28;19912;-74
2021/04/28 10:47:16;;;;;;;;;;;;;;;-142.75;26.33;75035.19;5052148;28;19935;-75
2021/04/28 10:50:00;;;;;;;;;;;;;;;-142.75;25.63;75015.50;5070333;28;19919;-72
2021/04/28 10:52:31;;;;;;;;;;;;;;;-142.75;26.38;75021.41;5071074;28;19923;-73
2021/04/28 10:54:56;;;;;;;;;;;;;;;-142.75;26.22;75379.53;5071676;28;19912;-75
2021/04/28 10:57:38;;;;;;;;;;;;;;;-142.75;28.04;75381.50;5066843;28;20388;-74
2021/04/28 11:00:23;;;;;;;;;;;;;;;-142.75;26.52;75414.97;5070717;28;19923;-74
2021/04/28 11:02:48;;;;;;;;;;;;;;;-142.75;28.38;75481.88;5071038;28;19912;-75
2021/04/28 11:05:27;;;;;;;;;;;;;;;-142.75;27.78;75247.69;5071134;28;20003;-74
2021/04/28 11:07:53;;;;;;;;;;;;;;;-142.75;27.25;75161.13;5070105;28;19919;-74
2021/04/28 11:10:26;;;;;;;;;;;;;;;-142.75;26.21;75279.19;5053013;28;19940;-76
2021/04/28 11:13:05;;;;;;;;;;;;;;;-142.75;28.02;75289.03;5071122;28;19916;-73
2021/04/28 11:15:49;;;;;;;;;;;;;;;-142.75;27.52;75312.63;5051819;28;19926;-74
2021/04/28 11:18:28;;;;;;;;;;;;;;;-142.75;27.80;75389.38;5071230;28;19916;-72
2021/04/28 11:21:12;;;;;;;;;;;;;;;-142.75;27.81;75377.56;5052356;28;19916;-73
2021/04/28 11:23:57;;;;;;;;;;;;;;;-142.75;27.32;75444.47;5070951;28;20362;-72
2021/04/28 11:26:23;;;;;;;;;;;;;;;-142.75;28.52;75430.72;5052593;28;20234;-73
2021/04/28 11:28:48;;;;;;;;;;;;;;;-142.75;27.69;75373.63;5070579;28;20007;-73
2021/04/28 11:31:23;;;;;;;;;;;;;;;-142.75;29.13;75393.31;5070224;28;19920;-73
2021/04/28 11:33:49;;;;;;;;;;;;;;;-142.75;27.70;75418.91;5070204;28;19912;-69
2021/04/28 11:36:15;;;;;;;;;;;;;;;-142.75;28.46;75454.31;5050438;28;19924;-71
2021/04/28 11:38:45;;;;;;;;;;;;;;;-142.75;29.08;75472.03;5049546;28;19952;-72
2021/04/28 11:41:13;;;;;;;;;;;;;;;-142.75;29.12;75483.84;5050057;28;20449;-73
2021/04/28 11:43:59;;;;;;;;;;;;;;;-142.75;29.69;75542.88;5051359;28;19966;-73
2021/04/28 11:46:25;;;;;;;;;;;;;;;-142.75;29.98;75550.75;5069948;28;19967;-70
2021/04/28 11:48:52;;;;;;;;;;;;;;;-142.75;30.59;75538.94;5052513;28;19919;-72
2021/04/28 11:51:18;;;;;;;;;;;;;;;-142.75;31.37;75568.47;5069591;28;20007;-72
2021/04/28 11:53:47;;;;;;;;;;;;;;;-142.75;31.04;75625.53;5052007;28;19916;-73
2021/04/28 11:56:47;;;;;;;;;;;;;;;-142.75;31.93;75637.34;5053219;28;19943;-72
2021/04/28 11:59:21;;;;;;;;;;;;;;;-142.75;32.30;75721.97;5032267;28;19919;-73
2021/04/28 12:01:47;;;;;;;;;;;;;;;-142.75;32.30;75727.88;5054917;28;19913;-71
2021/04/28 12:04:12;;;;;;;;;;;;;;;-142.75;33.24;75753.47;5055581;28;19920;-73
2021/04/28 12:06:38;;;;;;;;;;;;;;;-142.75;34.01;75765.25;5055180;28;20406;-71
2021/04/28 12:09:12;;;;;;;;;;;;;;;-142.75;33.20;75796.75;5048997;28;20011;-71
2021/04/28 12:11:38;;;;;;;;;;;;;;;-142.75;32.92;75826.28;5054198;28;20342;-72
2021/04/28 12:14:04;;;;;;;;;;;;;;;-142.75;33.85;75830.22;5050171;28;19929;-72
2021/04/28 12:16:29;;;;;;;;;;;;;;;-142.75;34.01;75847.94;5048623;28;19935;-72
2021/04/28 12:19:12;;;;;;;;;;;;;;;-142.75;34.01;75873.50;5048692;28;19958;-71
2021/04/28 12:21:49;;;;;;;;;;;;;;;-142.75;34.18;75857.78;5068180;28;19913;-70
2021/04/28 12:24:21;;;;;;;;;;;;;;;-142.75;34.23;75889.25;5069817;28;19913;-69
2021/04/28 12:27:05;;;;;;;;;;;;;;;-142.75;34.47;75881.38;5069750;28;19912;-71